createdAt,value
2023-04-11T00:04:23.017Z,16.29
2023-04-11T00:09:25.370Z,15.99
2023-04-11T00:14:28.962Z,15.95
2023-04-11T00:19:33.447Z,15.82
2023-04-11T00:24:35.783Z,15.66
2023-04-11T00:29:37.970Z,15.87
2023-04-11T00:34:41.176Z,15.92
2023-04-11T00:39:45.162Z,15.96
2023-04-11T00:44:47.624Z,15.87
2023-04-11T00:49:49.968Z,15.92
2023-04-11T00:54:52.321Z,15.85
2023-04-11T00:59:54.667Z,16.06
2023-04-11T01:04:57.582Z,15.85
2023-04-11T01:10:02.696Z,16.03
2023-04-11T01:15:06.441Z,15.48
2023-04-11T01:20:10.267Z,14.88
2023-04-11T01:25:15.662Z,14.87
2023-04-11T01:30:18.231Z,14.51
2023-04-11T01:35:20.858Z,14.03
2023-04-11T01:40:24.034Z,14.21
2023-04-11T01:45:28.698Z,13.86
2023-04-11T01:50:31.071Z,14.01
2023-04-11T01:55:33.286Z,14.12
2023-04-11T02:00:37.134Z,13.73
2023-04-11T02:05:39.882Z,13.73
2023-04-11T02:10:42.128Z,13.75
2023-04-11T02:15:44.511Z,13.59
2023-04-11T02:20:46.840Z,13.57
2023-04-11T02:25:48.995Z,13.72
2023-04-11T02:30:51.233Z,13.28
2023-04-11T02:35:54.197Z,13.58
2023-04-11T02:40:56.714Z,13.51
2023-04-11T02:46:09.599Z,13.67
2023-04-11T02:51:15.420Z,13.64
2023-04-11T02:56:19.398Z,13.73
2023-04-11T03:01:25.622Z,13.30
2023-04-11T03:06:30.323Z,13.10
2023-04-11T03:11:35.636Z,13.13
2023-04-11T03:16:39.181Z,13.06
2023-04-11T03:21:41.632Z,13.05
2023-04-11T03:26:44.761Z,12.94
2023-04-11T03:31:51.066Z,13.27
2023-04-11T03:36:54.281Z,12.99
2023-04-11T03:41:56.702Z,13.03
2023-04-11T03:46:59.840Z,13.18
2023-04-11T03:52:10.149Z,13.14
2023-04-11T03:57:14.137Z,13.09
2023-04-11T04:02:16.798Z,12.94
2023-04-11T04:07:27.788Z,13.30
2023-04-11T04:12:39.851Z,13.04
2023-04-11T04:17:50.981Z,12.95
2023-04-11T04:23:00.922Z,13.25
2023-04-11T04:28:20.192Z,13.41
2023-04-11T04:33:23.316Z,13.25
2023-04-11T04:38:28.996Z,13.14
2023-04-11T04:43:36.029Z,13.21
2023-04-11T04:48:47.235Z,13.08
2023-04-11T04:53:49.580Z,13.22
2023-04-11T04:58:51.768Z,13.68
2023-04-11T05:04:02.231Z,12.86
2023-04-11T05:09:19.805Z,12.64
2023-04-11T05:14:23.837Z,12.58
2023-04-11T05:19:26.237Z,12.03
2023-04-11T05:24:28.673Z,12.30
2023-04-11T05:29:32.826Z,12.01
2023-04-11T05:34:53.852Z,12.04
2023-04-11T05:40:05.799Z,12.15
2023-04-11T05:45:08.960Z,13.03
2023-04-11T05:50:11.669Z,12.80
2023-04-11T05:55:14.125Z,12.59
2023-04-11T06:00:17.284Z,12.73
2023-04-11T06:05:21.149Z,12.67
2023-04-11T06:10:23.550Z,11.46
2023-04-11T06:15:27.026Z,11.08
2023-04-11T06:20:29.303Z,12.07
2023-04-11T06:25:31.731Z,12.04
2023-04-11T06:30:33.941Z,12.33
2023-04-11T06:35:36.694Z,12.64
2023-04-11T06:40:38.866Z,12.58
2023-04-11T06:45:40.987Z,12.21
2023-04-11T06:50:43.150Z,11.99
2023-04-11T06:55:49.662Z,12.71
2023-04-11T07:00:52.988Z,13.11
2023-04-11T07:05:55.232Z,12.76
2023-04-11T07:10:57.564Z,12.94
2023-04-11T07:15:59.910Z,13.16
2023-04-11T07:21:02.066Z,13.47
2023-04-11T07:26:04.526Z,12.64
2023-04-11T07:31:11.042Z,12.84
2023-04-11T07:36:13.348Z,13.03
2023-04-11T07:41:16.563Z,12.88
2023-04-11T07:46:18.913Z,12.90
2023-04-11T07:51:21.085Z,13.02
2023-04-11T07:56:23.237Z,13.53
2023-04-11T08:01:26.976Z,13.04
2023-04-11T08:06:29.379Z,13.38
2023-04-11T08:11:32.152Z,13.54
2023-04-11T08:16:36.030Z,13.77
2023-04-11T08:21:39.156Z,13.39
2023-04-11T08:26:41.479Z,13.73
2023-04-11T08:31:44.732Z,14.00
2023-04-11T08:36:47.092Z,13.27
2023-04-11T08:41:49.258Z,12.75
2023-04-11T08:46:51.690Z,12.62
2023-04-11T08:51:54.795Z,12.64
2023-04-11T08:56:56.929Z,12.96
2023-04-11T09:02:09.835Z,13.11
2023-04-11T09:07:12.253Z,13.50
2023-04-11T09:12:14.686Z,13.76
2023-04-11T09:17:17.270Z,13.60
2023-04-11T09:22:19.519Z,13.34
2023-04-11T09:27:24.679Z,13.65
2023-04-11T09:32:34.828Z,13.63
2023-04-11T09:37:50.320Z,13.63
2023-04-11T09:43:04.983Z,14.10
2023-04-11T09:48:07.200Z,14.05
2023-04-11T09:53:11.258Z,14.33
2023-04-11T09:58:14.054Z,14.90
2023-04-11T10:03:20.282Z,14.52
2023-04-11T10:08:34.165Z,14.72
2023-04-11T10:13:45.036Z,14.82
2023-04-11T10:18:56.541Z,14.71
2023-04-11T10:24:23.336Z,15.07
2023-04-11T10:29:31.406Z,15.00
2023-04-11T10:34:35.684Z,14.90
2023-04-11T10:40:00.829Z,15.03
2023-04-11T10:45:25.513Z,15.44
2023-04-11T10:50:27.682Z,15.44
2023-04-11T10:55:42.956Z,15.57
2023-04-11T11:00:51.606Z,15.63
2023-04-11T11:06:10.481Z,15.45
2023-04-11T11:11:14.616Z,15.61
2023-04-11T11:16:26.119Z,15.29
2023-04-11T11:21:30.246Z,15.28
2023-04-11T11:26:43.050Z,15.74
2023-04-11T11:31:47.948Z,15.57
2023-04-11T11:36:50.743Z,15.67
2023-04-11T11:41:53.746Z,15.69
2023-04-11T11:47:09.356Z,15.55
2023-04-11T11:52:12.783Z,15.57
2023-04-11T11:57:23.211Z,15.67
2023-04-11T12:02:26.861Z,15.68
2023-04-11T12:07:38.063Z,15.48
2023-04-11T12:12:53.327Z,15.55
2023-04-11T12:17:56.670Z,16.10
2023-04-11T12:22:58.961Z,16.11
2023-04-11T12:28:01.152Z,16.42
2023-04-11T12:33:03.641Z,16.47
2023-04-11T12:38:06.563Z,16.86
2023-04-11T12:43:08.868Z,16.66
2023-04-11T12:48:11.059Z,16.29
2023-04-11T12:53:13.179Z,16.17
2023-04-11T12:58:15.787Z,16.93
2023-04-11T13:03:18.306Z,16.56
2023-04-11T13:08:20.867Z,16.47
2023-04-11T13:13:23.138Z,16.08
2023-04-11T13:18:25.400Z,15.99
2023-04-11T13:23:27.510Z,16.43
2023-04-11T13:28:30.044Z,15.86
2023-04-11T13:33:32.647Z,15.95
2023-04-11T13:38:34.910Z,16.32
2023-04-11T13:43:37.280Z,16.29
2023-04-11T13:48:39.590Z,16.53
2023-04-11T13:53:41.904Z,16.90
2023-04-11T13:58:44.511Z,17.16
2023-04-11T14:03:48.327Z,16.77
2023-04-11T14:08:51.703Z,16.34
2023-04-11T14:13:54.037Z,17.08
2023-04-11T14:18:56.464Z,16.07
2023-04-11T14:23:59.310Z,17.15
2023-04-11T14:29:02.832Z,17.03
2023-04-11T14:34:05.217Z,17.05
2023-04-11T14:39:07.440Z,16.76
2023-04-11T14:44:09.761Z,16.74
2023-04-11T14:49:12.446Z,17.17
2023-04-11T14:54:14.585Z,16.81
2023-04-11T14:59:16.774Z,17.15
2023-04-11T15:04:19.447Z,17.38
2023-04-11T15:09:22.182Z,17.46
2023-04-11T15:14:29.611Z,17.36
2023-04-11T15:19:31.906Z,17.34
2023-04-11T15:24:34.244Z,17.11
2023-04-11T15:29:36.634Z,16.64
2023-04-11T15:34:40.372Z,16.86
2023-04-11T15:39:42.691Z,16.81
2023-04-11T15:44:45.971Z,16.80
2023-04-11T15:49:48.106Z,16.21
2023-04-11T15:54:50.559Z,16.35
2023-04-11T15:59:52.878Z,15.86
2023-04-11T16:04:56.064Z,16.24
2023-04-11T16:09:58.478Z,16.03
2023-04-11T16:15:00.866Z,15.66
2023-04-11T16:20:07.302Z,15.81
2023-04-11T16:25:10.006Z,15.74
2023-04-11T16:30:12.576Z,15.24
2023-04-11T16:35:14.732Z,15.23
2023-04-11T16:40:17.005Z,15.52
2023-04-11T16:45:19.238Z,15.52
2023-04-11T16:50:21.938Z,15.40
2023-04-11T16:55:24.383Z,15.09
2023-04-11T17:00:29.601Z,14.93
2023-04-11T17:05:34.895Z,14.89
2023-04-11T17:10:37.327Z,15.03
2023-04-11T17:15:39.628Z,14.87
2023-04-11T17:20:43.588Z,14.85
2023-04-11T17:25:45.945Z,15.00
2023-04-11T17:30:48.685Z,15.20
2023-04-11T17:35:54.465Z,15.23
2023-04-11T17:41:00.196Z,14.93
2023-04-11T17:46:09.346Z,14.92
2023-04-11T17:51:11.704Z,15.09
2023-04-11T17:56:14.448Z,14.89
2023-04-11T18:01:16.885Z,15.05
2023-04-11T18:06:19.283Z,15.16
2023-04-11T18:11:21.750Z,14.72
2023-04-11T18:16:23.916Z,14.71
2023-04-11T18:21:26.394Z,15.22
2023-04-11T18:26:29.281Z,15.16
2023-04-11T18:31:35.191Z,14.96
2023-04-11T18:36:37.603Z,14.65
2023-04-11T18:41:39.868Z,14.73
2023-04-11T18:46:42.088Z,14.64
2023-04-11T18:51:44.411Z,14.86
2023-04-11T18:56:49.069Z,14.46
2023-04-11T19:01:55.598Z,14.80
2023-04-11T19:06:59.154Z,14.78
2023-04-11T19:12:01.351Z,14.49
2023-04-11T19:17:03.740Z,14.30
2023-04-11T19:22:06.144Z,14.37
2023-04-11T19:27:08.629Z,14.43
2023-04-11T19:32:12.262Z,14.04
2023-04-11T19:37:16.399Z,14.33
2023-04-11T19:42:19.044Z,14.39
2023-04-11T19:47:21.198Z,14.20
2023-04-11T19:52:23.554Z,14.34
2023-04-11T19:57:27.873Z,14.36
2023-04-11T20:02:30.135Z,14.00
2023-04-11T20:07:32.421Z,13.99
2023-04-11T20:12:35.260Z,13.57
2023-04-11T20:17:37.411Z,13.74
2023-04-11T20:22:44.920Z,14.34
2023-04-11T20:27:47.717Z,14.10
2023-04-11T20:32:50.049Z,13.76
2023-04-11T20:37:53.974Z,13.36
2023-04-11T20:42:56.533Z,13.65
2023-04-11T20:48:01.750Z,13.15
2023-04-11T20:53:04.105Z,13.65
2023-04-11T20:58:08.695Z,13.16
2023-04-11T21:03:11.207Z,13.29
2023-04-11T21:08:13.987Z,13.26
2023-04-11T21:13:16.308Z,13.01
2023-04-11T21:18:18.502Z,13.18
2023-04-11T21:23:20.752Z,12.47
2023-04-11T21:28:22.852Z,12.37
2023-04-11T21:33:24.995Z,12.47
2023-04-11T21:38:27.182Z,12.33
2023-04-11T21:43:29.304Z,12.05
2023-04-11T21:48:31.419Z,12.08
2023-04-11T21:53:33.582Z,12.33
2023-04-11T21:58:36.442Z,12.03
2023-04-11T22:03:42.736Z,12.07
2023-04-11T22:08:50.841Z,11.64
2023-04-11T22:13:53.133Z,11.88
2023-04-11T22:18:58.132Z,12.05
2023-04-11T22:24:02.261Z,11.57
2023-04-11T22:29:05.191Z,11.93
2023-04-11T22:34:10.280Z,12.02
2023-04-11T22:39:12.514Z,11.96
2023-04-11T22:44:14.627Z,12.01
2023-04-11T22:49:17.752Z,12.21
2023-04-11T22:54:20.222Z,12.21
2023-04-11T22:59:26.212Z,12.21
2023-04-11T23:04:28.494Z,12.18
2023-04-11T23:09:30.875Z,12.22
2023-04-11T23:14:33.019Z,11.97
2023-04-11T23:19:35.308Z,11.58
2023-04-11T23:24:37.541Z,12.07
2023-04-11T23:29:39.898Z,12.68
2023-04-11T23:34:42.215Z,12.60
2023-04-11T23:39:44.398Z,12.32
2023-04-11T23:44:48.184Z,12.65
2023-04-11T23:49:50.620Z,12.69
2023-04-11T23:54:52.956Z,12.93
2023-04-11T23:59:55.426Z,12.59
